Grange Hill, United Kingdom
Current Conditions -  °F | °C
As of 5:50 AM on Sunday 23 Nov 2014 (Local Time) from EGLC Reporting Station
Heavy Rain Heavy Rain  
Wind Chill: 52°   Ceiling: 1200
Heat Index: 52°   Visibility: 4mi
Dew Point: 52°   Wind: 6mph
Humidity: 100%   Direction: 310°NW
Pressure: 29.97"   Gusts: NA
Location:  51.61°N, 0.09°E
Report Text: EGLC 230550Z AUTO 31005KT 280V350 6000 +RA FEW005/// BKN012/// BKN018/// 11/11 Q1015
Loading
Personal Weather Stations






























Interactive Weather Map New forecast layout! Learn more

10-Day Weather Forecast

Advertisements
Track Severe Weather on mobile